sensor_id;sensor_type;location;lat;lon;timestamp;P1;durP1;ratioP1;P2;durP2;ratioP2
14030;SDS011;7090;49.436;8.490;2024-03-02T00:00:04;28.97;;;19.80;;
14030;SDS011;7090;49.436;8.490;2024-03-02T00:02:43;12.00;;;11.07;;
14030;SDS011;7090;49.436;8.490;2024-03-02T00:05:13;14.40;;;13.10;;
14030;SDS011;7090;49.436;8.490;2024-03-02T00:07:44;11.43;;;10.53;;
14030;SDS011;7090;49.436;8.490;2024-03-02T00:10:14;7.70;;;7.30;;
14030;SDS011;7090;49.436;8.490;2024-03-02T00:12:44;10.90;;;10.20;;
14030;SDS011;7090;49.436;8.490;2024-03-02T00:18:03;10.93;;;10.17;;
14030;SDS011;7090;49.436;8.490;2024-03-02T00:20:29;13.87;;;12.63;;
14030;SDS011;7090;49.436;8.490;2024-03-02T00:22:58;14.93;;;13.17;;
14030;SDS011;7090;49.436;8.490;2024-03-02T00:25:30;13.93;;;12.80;;
14030;SDS011;7090;49.436;8.490;2024-03-02T00:33:43;10.77;;;10.03;;
14030;SDS011;7090;49.436;8.490;2024-03-02T00:36:11;11.83;;;11.10;;
14030;SDS011;7090;49.436;8.490;2024-03-02T00:38:48;12.50;;;11.57;;
14030;SDS011;7090;49.436;8.490;2024-03-02T00:41:15;12.37;;;11.47;;
14030;SDS011;7090;49.436;8.490;2024-03-02T00:44:06;12.13;;;11.13;;
14030;SDS011;7090;49.436;8.490;2024-03-02T00:46:36;8.43;;;8.13;;
14030;SDS011;7090;49.436;8.490;2024-03-02T00:49:14;9.73;;;9.13;;
14030;SDS011;7090;49.436;8.490;2024-03-02T00:51:50;11.53;;;10.53;;
14030;SDS011;7090;49.436;8.490;2024-03-02T00:54:20;12.93;;;11.60;;
14030;SDS011;7090;49.436;8.490;2024-03-02T00:56:49;10.37;;;9.77;;
14030;SDS011;7090;49.436;8.490;2024-03-02T00:59:15;9.37;;;8.73;;
14030;SDS011;7090;49.436;8.490;2024-03-02T01:01:40;9.90;;;9.50;;
14030;SDS011;7090;49.436;8.490;2024-03-02T01:04:07;9.27;;;8.87;;
14030;SDS011;7090;49.436;8.490;2024-03-02T01:06:33;9.47;;;9.07;;
14030;SDS011;7090;49.436;8.490;2024-03-02T01:08:59;8.80;;;8.50;;
14030;SDS011;7090;49.436;8.490;2024-03-02T01:11:25;10.47;;;9.87;;
14030;SDS011;7090;49.436;8.490;2024-03-02T01:13:50;9.60;;;9.20;;
14030;SDS011;7090;49.436;8.490;2024-03-02T01:16:17;11.10;;;10.20;;
14030;SDS011;7090;49.436;8.490;2024-03-02T01:18:42;9.90;;;9.50;;
14030;SDS011;7090;49.436;8.490;2024-03-02T01:21:08;11.20;;;10.40;;
14030;SDS011;7090;49.436;8.490;2024-03-02T01:23:34;9.40;;;9.00;;
14030;SDS011;7090;49.436;8.490;2024-03-02T01:25:59;9.13;;;8.73;;
14030;SDS011;7090;49.436;8.490;2024-03-02T01:28:25;10.80;;;10.23;;
14030;SDS011;7090;49.436;8.490;2024-03-02T01:30:50;11.10;;;10.40;;
14030;SDS011;7090;49.436;8.490;2024-03-02T01:33:16;10.43;;;9.83;;
14030;SDS011;7090;49.436;8.490;2024-03-02T01:35:43;11.90;;;10.73;;
14030;SDS011;7090;49.436;8.490;2024-03-02T01:38:09;13.07;;;12.07;;
14030;SDS011;7090;49.436;8.490;2024-03-02T01:40:34;10.47;;;9.77;;
14030;SDS011;7090;49.436;8.490;2024-03-02T01:43:01;8.77;;;8.40;;
14030;SDS011;7090;49.436;8.490;2024-03-02T01:45:27;11.63;;;10.70;;
14030;SDS011;7090;49.436;8.490;2024-03-02T01:47:53;12.63;;;11.63;;
14030;SDS011;7090;49.436;8.490;2024-03-02T01:50:25;11.97;;;11.07;;
14030;SDS011;7090;49.436;8.490;2024-03-02T01:52:52;15.03;;;13.60;;
14030;SDS011;7090;49.436;8.490;2024-03-02T01:55:18;15.70;;;14.13;;
14030;SDS011;7090;49.436;8.490;2024-03-02T01:57:44;12.13;;;11.20;;
14030;SDS011;7090;49.436;8.490;2024-03-02T02:00:10;12.97;;;12.23;;
14030;SDS011;7090;49.436;8.490;2024-03-02T02:02:36;15.97;;;14.37;;
14030;SDS011;7090;49.436;8.490;2024-03-02T02:05:01;14.50;;;12.97;;
14030;SDS011;7090;49.436;8.490;2024-03-02T02:07:27;9.13;;;8.63;;
14030;SDS011;7090;49.436;8.490;2024-03-02T02:09:53;11.33;;;10.57;;
14030;SDS011;7090;49.436;8.490;2024-03-02T02:12:18;15.93;;;13.17;;
14030;SDS011;7090;49.436;8.490;2024-03-02T02:14:48;14.17;;;12.90;;
14030;SDS011;7090;49.436;8.490;2024-03-02T02:17:15;15.07;;;13.77;;
14030;SDS011;7090;49.436;8.490;2024-03-02T02:19:41;13.93;;;12.57;;
14030;SDS011;7090;49.436;8.490;2024-03-02T02:22:07;12.70;;;11.73;;
14030;SDS011;7090;49.436;8.490;2024-03-02T02:24:33;14.07;;;12.73;;
14030;SDS011;7090;49.436;8.490;2024-03-02T02:26:59;11.53;;;10.80;;
14030;SDS011;7090;49.436;8.490;2024-03-02T02:29:24;18.53;;;12.30;;
14030;SDS011;7090;49.436;8.490;2024-03-02T02:31:50;10.13;;;9.63;;
14030;SDS011;7090;49.436;8.490;2024-03-02T02:34:15;11.13;;;10.47;;
14030;SDS011;7090;49.436;8.490;2024-03-02T02:36:41;11.73;;;11.03;;
14030;SDS011;7090;49.436;8.490;2024-03-02T02:39:09;14.27;;;13.07;;
14030;SDS011;7090;49.436;8.490;2024-03-02T02:41:37;12.07;;;11.37;;
14030;SDS011;7090;49.436;8.490;2024-03-02T02:44:03;15.97;;;13.60;;
14030;SDS011;7090;49.436;8.490;2024-03-02T02:46:29;11.30;;;10.27;;
14030;SDS011;7090;49.436;8.490;2024-03-02T02:48:54;13.30;;;11.23;;
14030;SDS011;7090;49.436;8.490;2024-03-02T02:51:20;11.17;;;10.53;;
14030;SDS011;7090;49.436;8.490;2024-03-02T02:53:46;11.80;;;10.77;;
14030;SDS011;7090;49.436;8.490;2024-03-02T02:56:11;12.00;;;10.77;;
14030;SDS011;7090;49.436;8.490;2024-03-02T02:58:37;10.57;;;9.77;;
14030;SDS011;7090;49.436;8.490;2024-03-02T03:01:03;14.20;;;12.87;;
14030;SDS011;7090;49.436;8.490;2024-03-02T03:03:28;12.00;;;10.90;;
14030;SDS011;7090;49.436;8.490;2024-03-02T03:05:55;14.40;;;12.97;;
14030;SDS011;7090;49.436;8.490;2024-03-02T03:08:20;8.20;;;7.90;;
14030;SDS011;7090;49.436;8.490;2024-03-02T03:10:48;10.37;;;9.73;;
14030;SDS011;7090;49.436;8.490;2024-03-02T03:13:14;10.70;;;10.00;;
14030;SDS011;7090;49.436;8.490;2024-03-02T03:15:40;12.77;;;11.57;;
14030;SDS011;7090;49.436;8.490;2024-03-02T03:18:05;11.93;;;10.97;;
14030;SDS011;7090;49.436;8.490;2024-03-02T03:20:32;10.63;;;9.80;;
14030;SDS011;7090;49.436;8.490;2024-03-02T03:22:59;10.67;;;9.87;;
14030;SDS011;7090;49.436;8.490;2024-03-02T03:25:25;13.00;;;12.03;;
14030;SDS011;7090;49.436;8.490;2024-03-02T03:27:51;13.57;;;12.67;;
14030;SDS011;7090;49.436;8.490;2024-03-02T03:30:19;12.70;;;11.70;;
14030;SDS011;7090;49.436;8.490;2024-03-02T03:32:45;17.70;;;10.93;;
14030;SDS011;7090;49.436;8.490;2024-03-02T03:35:10;12.63;;;11.73;;
14030;SDS011;7090;49.436;8.490;2024-03-02T03:37:37;14.20;;;12.90;;
14030;SDS011;7090;49.436;8.490;2024-03-02T03:40:03;14.93;;;13.53;;
14030;SDS011;7090;49.436;8.490;2024-03-02T03:42:34;12.37;;;11.37;;
14030;SDS011;7090;49.436;8.490;2024-03-02T03:45:04;11.17;;;10.37;;
14030;SDS011;7090;49.436;8.490;2024-03-02T03:47:33;13.93;;;12.47;;
14030;SDS011;7090;49.436;8.490;2024-03-02T03:49:59;9.10;;;8.70;;
14030;SDS011;7090;49.436;8.490;2024-03-02T03:52:24;9.87;;;9.47;;
14030;SDS011;7090;49.436;8.490;2024-03-02T03:54:50;10.00;;;9.50;;
14030;SDS011;7090;49.436;8.490;2024-03-02T03:57:16;13.67;;;12.77;;
14030;SDS011;7090;49.436;8.490;2024-03-02T03:59:42;12.67;;;10.23;;
14030;SDS011;7090;49.436;8.490;2024-03-02T04:02:08;9.50;;;9.10;;
14030;SDS011;7090;49.436;8.490;2024-03-02T04:04:34;9.97;;;9.37;;
14030;SDS011;7090;49.436;8.490;2024-03-02T04:07:00;11.73;;;10.83;;
14030;SDS011;7090;49.436;8.490;2024-03-02T04:09:26;12.30;;;11.50;;
14030;SDS011;7090;49.436;8.490;2024-03-02T04:11:52;10.13;;;9.63;;
14030;SDS011;7090;49.436;8.490;2024-03-02T04:14:18;9.97;;;9.37;;
14030;SDS011;7090;49.436;8.490;2024-03-02T04:16:43;9.90;;;9.40;;
14030;SDS011;7090;49.436;8.490;2024-03-02T04:19:09;8.83;;;8.40;;
14030;SDS011;7090;49.436;8.490;2024-03-02T04:21:35;12.33;;;11.23;;
14030;SDS011;7090;49.436;8.490;2024-03-02T04:24:00;11.43;;;10.53;;
14030;SDS011;7090;49.436;8.490;2024-03-02T04:26:26;13.60;;;12.50;;
14030;SDS011;7090;49.436;8.490;2024-03-02T04:28:52;9.90;;;9.20;;
14030;SDS011;7090;49.436;8.490;2024-03-02T04:31:18;8.10;;;7.70;;
14030;SDS011;7090;49.436;8.490;2024-03-02T04:33:44;11.27;;;10.63;;
14030;SDS011;7090;49.436;8.490;2024-03-02T04:36:10;14.43;;;12.50;;
14030;SDS011;7090;49.436;8.490;2024-03-02T04:38:36;11.27;;;10.50;;
14030;SDS011;7090;49.436;8.490;2024-03-02T04:41:02;13.07;;;11.77;;
14030;SDS011;7090;49.436;8.490;2024-03-02T04:43:28;13.90;;;12.70;;
14030;SDS011;7090;49.436;8.490;2024-03-02T04:45:54;13.80;;;12.67;;
14030;SDS011;7090;49.436;8.490;2024-03-02T04:48:19;13.23;;;12.00;;
14030;SDS011;7090;49.436;8.490;2024-03-02T04:50:47;11.47;;;10.50;;
14030;SDS011;7090;49.436;8.490;2024-03-02T04:53:12;10.70;;;9.73;;
14030;SDS011;7090;49.436;8.490;2024-03-02T04:55:38;12.70;;;11.60;;
14030;SDS011;7090;49.436;8.490;2024-03-02T04:58:04;10.10;;;9.23;;
14030;SDS011;7090;49.436;8.490;2024-03-02T05:00:30;13.80;;;12.50;;
14030;SDS011;7090;49.436;8.490;2024-03-02T05:02:56;19.33;;;11.97;;
14030;SDS011;7090;49.436;8.490;2024-03-02T05:05:21;9.70;;;8.77;;
14030;SDS011;7090;49.436;8.490;2024-03-02T05:07:47;13.47;;;12.23;;
14030;SDS011;7090;49.436;8.490;2024-03-02T05:10:12;6.87;;;6.57;;
14030;SDS011;7090;49.436;8.490;2024-03-02T05:12:39;9.43;;;8.43;;
14030;SDS011;7090;49.436;8.490;2024-03-02T05:15:07;6.10;;;5.87;;
14030;SDS011;7090;49.436;8.490;2024-03-02T05:17:35;11.23;;;10.33;;
14030;SDS011;7090;49.436;8.490;2024-03-02T05:20:01;8.60;;;8.10;;
14030;SDS011;7090;49.436;8.490;2024-03-02T05:22:27;8.30;;;7.90;;
14030;SDS011;7090;49.436;8.490;2024-03-02T05:24:53;13.33;;;9.67;;
14030;SDS011;7090;49.436;8.490;2024-03-02T05:27:19;10.53;;;9.63;;
14030;SDS011;7090;49.436;8.490;2024-03-02T05:29:45;14.10;;;12.67;;
14030;SDS011;7090;49.436;8.490;2024-03-02T05:32:10;14.07;;;12.33;;
14030;SDS011;7090;49.436;8.490;2024-03-02T05:34:36;16.30;;;13.70;;
14030;SDS011;7090;49.436;8.490;2024-03-02T05:37:01;12.47;;;11.53;;
14030;SDS011;7090;49.436;8.490;2024-03-02T05:39:27;17.67;;;14.30;;
14030;SDS011;7090;49.436;8.490;2024-03-02T05:41:52;12.23;;;10.83;;
14030;SDS011;7090;49.436;8.490;2024-03-02T05:44:18;13.07;;;11.87;;
14030;SDS011;7090;49.436;8.490;2024-03-02T05:46:44;17.73;;;14.07;;
14030;SDS011;7090;49.436;8.490;2024-03-02T05:49:10;12.30;;;11.33;;
14030;SDS011;7090;49.436;8.490;2024-03-02T05:51:36;14.43;;;13.03;;
14030;SDS011;7090;49.436;8.490;2024-03-02T05:54:01;16.20;;;14.67;;
14030;SDS011;7090;49.436;8.490;2024-03-02T05:56:27;9.73;;;9.23;;
14030;SDS011;7090;49.436;8.490;2024-03-02T05:58:53;16.10;;;13.93;;
14030;SDS011;7090;49.436;8.490;2024-03-02T06:01:43;11.87;;;10.83;;
14030;SDS011;7090;49.436;8.490;2024-03-02T06:04:16;10.93;;;10.03;;
14030;SDS011;7090;49.436;8.490;2024-03-02T06:06:42;10.27;;;9.57;;
14030;SDS011;7090;49.436;8.490;2024-03-02T06:09:08;15.60;;;12.60;;
14030;SDS011;7090;49.436;8.490;2024-03-02T06:11:38;10.93;;;10.20;;
14030;SDS011;7090;49.436;8.490;2024-03-02T06:14:04;11.10;;;10.10;;
14030;SDS011;7090;49.436;8.490;2024-03-02T06:16:31;13.27;;;12.07;;
14030;SDS011;7090;49.436;8.490;2024-03-02T06:18:57;13.90;;;12.50;;
14030;SDS011;7090;49.436;8.490;2024-03-02T06:21:23;12.83;;;11.50;;
14030;SDS011;7090;49.436;8.490;2024-03-02T06:23:49;14.00;;;12.57;;
14030;SDS011;7090;49.436;8.490;2024-03-02T06:26:14;12.73;;;11.80;;
14030;SDS011;7090;49.436;8.490;2024-03-02T06:28:40;16.33;;;14.73;;
14030;SDS011;7090;49.436;8.490;2024-03-02T06:31:06;14.87;;;13.37;;
14030;SDS011;7090;49.436;8.490;2024-03-02T06:33:31;12.80;;;11.77;;
14030;SDS011;7090;49.436;8.490;2024-03-02T06:35:57;13.27;;;12.00;;
14030;SDS011;7090;49.436;8.490;2024-03-02T06:38:23;8.07;;;7.63;;
14030;SDS011;7090;49.436;8.490;2024-03-02T06:40:48;13.43;;;12.07;;
14030;SDS011;7090;49.436;8.490;2024-03-02T06:43:14;10.77;;;9.83;;
14030;SDS011;7090;49.436;8.490;2024-03-02T06:45:40;16.97;;;12.93;;
14030;SDS011;7090;49.436;8.490;2024-03-02T06:48:06;8.63;;;8.20;;
14030;SDS011;7090;49.436;8.490;2024-03-02T06:50:32;11.00;;;10.30;;
14030;SDS011;7090;49.436;8.490;2024-03-02T06:52:57;12.43;;;11.53;;
14030;SDS011;7090;49.436;8.490;2024-03-02T06:55:23;8.77;;;8.37;;
14030;SDS011;7090;49.436;8.490;2024-03-02T06:57:49;10.80;;;10.20;;
14030;SDS011;7090;49.436;8.490;2024-03-02T07:00:15;12.93;;;11.80;;
14030;SDS011;7090;49.436;8.490;2024-03-02T07:02:42;12.73;;;10.93;;
14030;SDS011;7090;49.436;8.490;2024-03-02T07:05:09;9.67;;;9.17;;
14030;SDS011;7090;49.436;8.490;2024-03-02T07:07:36;12.10;;;11.17;;
14030;SDS011;7090;49.436;8.490;2024-03-02T07:10:03;15.07;;;13.57;;
14030;SDS011;7090;49.436;8.490;2024-03-02T07:12:35;13.10;;;12.00;;
14030;SDS011;7090;49.436;8.490;2024-03-02T07:15:01;8.40;;;8.10;;
14030;SDS011;7090;49.436;8.490;2024-03-02T07:17:30;11.17;;;10.47;;
14030;SDS011;7090;49.436;8.490;2024-03-02T07:19:56;10.80;;;10.20;;
14030;SDS011;7090;49.436;8.490;2024-03-02T07:22:22;12.00;;;11.20;;
14030;SDS011;7090;49.436;8.490;2024-03-02T07:24:48;8.30;;;8.00;;
14030;SDS011;7090;49.436;8.490;2024-03-02T07:27:14;11.90;;;11.17;;
14030;SDS011;7090;49.436;8.490;2024-03-02T07:29:40;13.07;;;12.17;;
14030;SDS011;7090;49.436;8.490;2024-03-02T07:32:07;13.10;;;12.20;;
14030;SDS011;7090;49.436;8.490;2024-03-02T07:34:33;12.97;;;11.97;;
14030;SDS011;7090;49.436;8.490;2024-03-02T07:36:59;8.87;;;8.53;;
14030;SDS011;7090;49.436;8.490;2024-03-02T07:39:25;9.83;;;9.13;;
14030;SDS011;7090;49.436;8.490;2024-03-02T07:41:50;11.40;;;10.60;;
14030;SDS011;7090;49.436;8.490;2024-03-02T07:44:16;14.77;;;12.83;;
14030;SDS011;7090;49.436;8.490;2024-03-02T07:46:44;11.07;;;10.20;;
14030;SDS011;7090;49.436;8.490;2024-03-02T07:49:11;7.83;;;7.53;;
14030;SDS011;7090;49.436;8.490;2024-03-02T07:51:39;12.02;;;11.07;;
14030;SDS011;7090;49.436;8.490;2024-03-02T07:54:04;12.80;;;11.50;;
14030;SDS011;7090;49.436;8.490;2024-03-02T07:56:30;10.30;;;9.70;;
14030;SDS011;7090;49.436;8.490;2024-03-02T07:58:56;10.90;;;10.03;;
14030;SDS011;7090;49.436;8.490;2024-03-02T08:01:25;10.77;;;9.93;;
14030;SDS011;7090;49.436;8.490;2024-03-02T08:03:55;11.40;;;10.20;;
14030;SDS011;7090;49.436;8.490;2024-03-02T08:06:25;9.23;;;8.50;;
14030;SDS011;7090;49.436;8.490;2024-03-02T08:08:53;11.95;;;10.85;;
14030;SDS011;7090;49.436;8.490;2024-03-02T08:11:25;8.37;;;7.67;;
14030;SDS011;7090;49.436;8.490;2024-03-02T08:13:52;11.20;;;10.20;;
14030;SDS011;7090;49.436;8.490;2024-03-02T08:16:20;10.73;;;9.70;;
14030;SDS011;7090;49.436;8.490;2024-03-02T08:18:47;9.43;;;8.53;;
14030;SDS011;7090;49.436;8.490;2024-03-02T08:21:14;9.93;;;9.03;;
14030;SDS011;7090;49.436;8.490;2024-03-02T08:23:40;9.17;;;8.07;;
14030;SDS011;7090;49.436;8.490;2024-03-02T08:26:07;7.87;;;7.37;;
14030;SDS011;7090;49.436;8.490;2024-03-02T08:28:36;8.77;;;7.80;;
14030;SDS011;7090;49.436;8.490;2024-03-02T08:31:08;8.07;;;7.53;;
14030;SDS011;7090;49.436;8.490;2024-03-02T08:33:34;8.97;;;8.17;;
14030;SDS011;7090;49.436;8.490;2024-03-02T08:36:00;10.40;;;7.63;;
14030;SDS011;7090;49.436;8.490;2024-03-02T08:38:25;6.70;;;6.20;;
14030;SDS011;7090;49.436;8.490;2024-03-02T08:40:51;7.40;;;6.90;;
14030;SDS011;7090;49.436;8.490;2024-03-02T08:43:17;7.00;;;6.47;;
14030;SDS011;7090;49.436;8.490;2024-03-02T08:45:43;8.87;;;8.17;;
14030;SDS011;7090;49.436;8.490;2024-03-02T08:48:08;17.43;;;13.13;;
14030;SDS011;7090;49.436;8.490;2024-03-02T08:50:35;10.10;;;9.10;;
14030;SDS011;7090;49.436;8.490;2024-03-02T08:53:01;8.30;;;7.53;;
14030;SDS011;7090;49.436;8.490;2024-03-02T08:55:27;6.97;;;6.20;;
14030;SDS011;7090;49.436;8.490;2024-03-02T08:57:52;8.90;;;8.10;;
14030;SDS011;7090;49.436;8.490;2024-03-02T09:00:18;8.80;;;8.03;;
14030;SDS011;7090;49.436;8.490;2024-03-02T09:02:44;8.67;;;8.00;;
14030;SDS011;7090;49.436;8.490;2024-03-02T09:05:10;10.00;;;9.03;;
14030;SDS011;7090;49.436;8.490;2024-03-02T09:07:36;9.88;;;8.98;;
14030;SDS011;7090;49.436;8.490;2024-03-02T09:10:03;9.23;;;8.32;;
14030;SDS011;7090;49.436;8.490;2024-03-02T09:12:32;8.30;;;7.73;;
14030;SDS011;7090;49.436;8.490;2024-03-02T09:14:59;9.73;;;8.87;;
14030;SDS011;7090;49.436;8.490;2024-03-02T09:17:25;9.40;;;8.60;;
14030;SDS011;7090;49.436;8.490;2024-03-02T09:19:50;6.50;;;6.20;;
14030;SDS011;7090;49.436;8.490;2024-03-02T09:22:18;7.80;;;7.30;;
14030;SDS011;7090;49.436;8.490;2024-03-02T09:24:44;7.83;;;7.27;;
14030;SDS011;7090;49.436;8.490;2024-03-02T09:27:09;9.90;;;9.00;;
14030;SDS011;7090;49.436;8.490;2024-03-02T09:29:35;6.57;;;6.27;;
14030;SDS011;7090;49.436;8.490;2024-03-02T09:32:01;10.38;;;9.52;;
14030;SDS011;7090;49.436;8.490;2024-03-02T09:34:27;14.50;;;11.53;;
14030;SDS011;7090;49.436;8.490;2024-03-02T09:36:52;13.57;;;11.43;;
14030;SDS011;7090;49.436;8.490;2024-03-02T09:39:18;8.00;;;7.50;;
14030;SDS011;7090;49.436;8.490;2024-03-02T09:41:43;8.73;;;8.20;;
14030;SDS011;7090;49.436;8.490;2024-03-02T09:44:09;8.47;;;7.97;;
14030;SDS011;7090;49.436;8.490;2024-03-02T09:46:35;10.90;;;9.83;;
14030;SDS011;7090;49.436;8.490;2024-03-02T09:49:02;8.77;;;8.17;;
14030;SDS011;7090;49.436;8.490;2024-03-02T09:51:27;9.10;;;8.40;;
14030;SDS011;7090;49.436;8.490;2024-03-02T09:53:53;7.17;;;6.67;;
14030;SDS011;7090;49.436;8.490;2024-03-02T09:56:23;6.83;;;6.53;;
14030;SDS011;7090;49.436;8.490;2024-03-02T09:58:48;8.40;;;7.80;;
14030;SDS011;7090;49.436;8.490;2024-03-02T10:01:14;7.83;;;7.20;;
14030;SDS011;7090;49.436;8.490;2024-03-02T10:03:40;6.37;;;6.07;;
14030;SDS011;7090;49.436;8.490;2024-03-02T10:06:18;8.60;;;8.07;;
14030;SDS011;7090;49.436;8.490;2024-03-02T10:08:45;6.97;;;6.57;;
14030;SDS011;7090;49.436;8.490;2024-03-02T10:11:10;7.57;;;7.07;;
14030;SDS011;7090;49.436;8.490;2024-03-02T10:13:48;7.97;;;7.47;;
14030;SDS011;7090;49.436;8.490;2024-03-02T10:16:14;8.23;;;7.80;;
14030;SDS011;7090;49.436;8.490;2024-03-02T10:18:42;9.40;;;8.60;;
14030;SDS011;7090;49.436;8.490;2024-03-02T10:21:13;7.40;;;7.10;;
14030;SDS011;7090;49.436;8.490;2024-03-02T10:23:40;9.07;;;8.57;;
14030;SDS011;7090;49.436;8.490;2024-03-02T10:26:17;8.48;;;7.75;;
14030;SDS011;7090;49.436;8.490;2024-03-02T10:28:46;8.77;;;8.27;;
14030;SDS011;7090;49.436;8.490;2024-03-02T10:31:24;9.38;;;8.77;;
14030;SDS011;7090;49.436;8.490;2024-03-02T10:33:53;7.57;;;7.28;;
14030;SDS011;7090;49.436;8.490;2024-03-02T10:36:19;8.05;;;7.63;;
14030;SDS011;7090;49.436;8.490;2024-03-02T10:38:45;7.22;;;6.93;;
14030;SDS011;7090;49.436;8.490;2024-03-02T10:41:12;7.43;;;7.13;;
14030;SDS011;7090;49.436;8.490;2024-03-02T10:43:43;7.70;;;7.40;;
14030;SDS011;7090;49.436;8.490;2024-03-02T10:46:09;7.35;;;7.03;;
14030;SDS011;7090;49.436;8.490;2024-03-02T10:48:36;8.38;;;7.88;;
14030;SDS011;7090;49.436;8.490;2024-03-02T10:51:06;8.82;;;8.23;;
14030;SDS011;7090;49.436;8.490;2024-03-02T10:53:31;7.20;;;6.90;;
14030;SDS011;7090;49.436;8.490;2024-03-02T10:55:58;8.07;;;7.57;;
14030;SDS011;7090;49.436;8.490;2024-03-02T10:58:31;8.93;;;8.43;;
14030;SDS011;7090;49.436;8.490;2024-03-02T11:01:00;9.77;;;9.10;;
14030;SDS011;7090;49.436;8.490;2024-03-02T11:03:29;8.52;;;8.15;;
14030;SDS011;7090;49.436;8.490;2024-03-02T11:05:58;8.73;;;8.23;;
14030;SDS011;7090;49.436;8.490;2024-03-02T11:08:25;9.88;;;9.13;;
14030;SDS011;7090;49.436;8.490;2024-03-02T11:10:59;8.57;;;8.18;;
14030;SDS011;7090;49.436;8.490;2024-03-02T11:13:32;10.35;;;9.65;;
14030;SDS011;7090;49.436;8.490;2024-03-02T11:19:06;9.57;;;8.88;;
14030;SDS011;7090;49.436;8.490;2024-03-02T11:21:36;8.52;;;8.13;;
14030;SDS011;7090;49.436;8.490;2024-03-02T11:26:49;9.20;;;8.70;;
14030;SDS011;7090;49.436;8.490;2024-03-02T11:32:00;9.65;;;8.95;;
14030;SDS011;7090;49.436;8.490;2024-03-02T11:34:31;8.48;;;7.97;;
14030;SDS011;7090;49.436;8.490;2024-03-02T11:36:58;8.40;;;8.00;;
14030;SDS011;7090;49.436;8.490;2024-03-02T11:39:26;12.82;;;10.05;;
14030;SDS011;7090;49.436;8.490;2024-03-02T11:41:52;7.93;;;7.63;;
14030;SDS011;7090;49.436;8.490;2024-03-02T11:44:18;8.73;;;8.23;;
14030;SDS011;7090;49.436;8.490;2024-03-02T11:46:52;8.82;;;8.32;;
14030;SDS011;7090;49.436;8.490;2024-03-02T11:49:36;8.40;;;7.80;;
14030;SDS011;7090;49.436;8.490;2024-03-02T11:52:02;8.68;;;8.00;;
14030;SDS011;7090;49.436;8.490;2024-03-02T11:54:30;9.25;;;8.65;;
14030;SDS011;7090;49.436;8.490;2024-03-02T11:56:59;8.30;;;7.90;;
14030;SDS011;7090;49.436;8.490;2024-03-02T11:59:28;8.60;;;8.00;;
14030;SDS011;7090;49.436;8.490;2024-03-02T12:01:55;9.27;;;8.80;;
14030;SDS011;7090;49.436;8.490;2024-03-02T12:04:21;10.45;;;9.75;;
14030;SDS011;7090;49.436;8.490;2024-03-02T12:06:48;8.68;;;8.27;;
14030;SDS011;7090;49.436;8.490;2024-03-02T12:09:20;8.05;;;7.70;;
14030;SDS011;7090;49.436;8.490;2024-03-02T12:11:46;8.10;;;7.70;;
14030;SDS011;7090;49.436;8.490;2024-03-02T12:14:12;7.78;;;7.47;;
14030;SDS011;7090;49.436;8.490;2024-03-02T12:16:38;8.18;;;7.78;;
14030;SDS011;7090;49.436;8.490;2024-03-02T12:19:05;8.40;;;8.00;;
14030;SDS011;7090;49.436;8.490;2024-03-02T12:21:31;8.98;;;8.15;;
14030;SDS011;7090;49.436;8.490;2024-03-02T12:23:56;8.82;;;8.40;;
14030;SDS011;7090;49.436;8.490;2024-03-02T12:26:22;8.70;;;8.27;;
14030;SDS011;7090;49.436;8.490;2024-03-02T12:28:49;9.25;;;8.70;;
14030;SDS011;7090;49.436;8.490;2024-03-02T12:31:14;8.40;;;8.10;;
14030;SDS011;7090;49.436;8.490;2024-03-02T12:33:40;8.10;;;7.80;;
14030;SDS011;7090;49.436;8.490;2024-03-02T12:36:09;9.02;;;8.52;;
14030;SDS011;7090;49.436;8.490;2024-03-02T12:38:37;8.10;;;7.80;;
14030;SDS011;7090;49.436;8.490;2024-03-02T12:41:03;8.82;;;8.43;;
14030;SDS011;7090;49.436;8.490;2024-03-02T12:43:30;8.90;;;8.50;;
14030;SDS011;7090;49.436;8.490;2024-03-02T12:45:59;9.07;;;8.68;;
14030;SDS011;7090;49.436;8.490;2024-03-02T12:48:25;8.68;;;8.13;;
14030;SDS011;7090;49.436;8.490;2024-03-02T12:50:51;8.63;;;8.23;;
14030;SDS011;7090;49.436;8.490;2024-03-02T12:53:17;9.00;;;8.52;;
14030;SDS011;7090;49.436;8.490;2024-03-02T12:55:42;9.25;;;8.75;;
14030;SDS011;7090;49.436;8.490;2024-03-02T12:58:20;8.32;;;8.02;;
14030;SDS011;7090;49.436;8.490;2024-03-02T13:00:47;7.80;;;7.50;;
14030;SDS011;7090;49.436;8.490;2024-03-02T13:03:12;8.43;;;8.02;;
14030;SDS011;7090;49.436;8.490;2024-03-02T13:05:39;7.80;;;7.50;;
14030;SDS011;7090;49.436;8.490;2024-03-02T13:08:05;8.43;;;8.02;;
14030;SDS011;7090;49.436;8.490;2024-03-02T13:10:32;8.98;;;8.48;;
14030;SDS011;7090;49.436;8.490;2024-03-02T13:12:58;8.68;;;8.10;;
14030;SDS011;7090;49.436;8.490;2024-03-02T13:15:26;8.70;;;8.25;;
14030;SDS011;7090;49.436;8.490;2024-03-02T13:17:52;8.60;;;8.20;;
14030;SDS011;7090;49.436;8.490;2024-03-02T13:20:17;8.27;;;7.90;;
14030;SDS011;7090;49.436;8.490;2024-03-02T13:22:44;8.75;;;8.15;;
14030;SDS011;7090;49.436;8.490;2024-03-02T13:25:09;9.63;;;9.02;;
14030;SDS011;7090;49.436;8.490;2024-03-02T13:27:36;9.00;;;8.50;;
14030;SDS011;7090;49.436;8.490;2024-03-02T13:30:02;8.45;;;8.05;;
14030;SDS011;7090;49.436;8.490;2024-03-02T13:32:28;11.88;;;10.98;;
14030;SDS011;7090;49.436;8.490;2024-03-02T13:34:54;8.75;;;8.25;;
14030;SDS011;7090;49.436;8.490;2024-03-02T13:37:20;10.10;;;9.07;;
14030;SDS011;7090;49.436;8.490;2024-03-02T13:39:46;8.27;;;7.90;;
14030;SDS011;7090;49.436;8.490;2024-03-02T13:42:12;9.52;;;8.90;;
14030;SDS011;7090;49.436;8.490;2024-03-02T13:44:40;9.15;;;8.65;;
14030;SDS011;7090;49.436;8.490;2024-03-02T13:47:06;9.30;;;8.73;;
14030;SDS011;7090;49.436;8.490;2024-03-02T13:49:32;8.30;;;7.95;;
14030;SDS011;7090;49.436;8.490;2024-03-02T13:52:05;8.70;;;8.30;;
14030;SDS011;7090;49.436;8.490;2024-03-02T13:54:42;8.30;;;8.00;;
14030;SDS011;7090;49.436;8.490;2024-03-02T13:57:10;8.70;;;8.30;;
14030;SDS011;7090;49.436;8.490;2024-03-02T13:59:37;8.88;;;8.38;;
14030;SDS011;7090;49.436;8.490;2024-03-02T14:02:04;9.95;;;9.45;;
14030;SDS011;7090;49.436;8.490;2024-03-02T14:04:36;8.30;;;8.00;;
14030;SDS011;7090;49.436;8.490;2024-03-02T14:07:02;8.90;;;8.50;;
14030;SDS011;7090;49.436;8.490;2024-03-02T14:09:28;9.65;;;9.10;;
14030;SDS011;7090;49.436;8.490;2024-03-02T14:11:54;9.82;;;9.10;;
14030;SDS011;7090;49.436;8.490;2024-03-02T14:14:20;9.10;;;8.70;;
14030;SDS011;7090;49.436;8.490;2024-03-02T14:16:46;9.10;;;8.60;;
14030;SDS011;7090;49.436;8.490;2024-03-02T14:19:12;8.48;;;8.07;;
14030;SDS011;7090;49.436;8.490;2024-03-02T14:21:38;9.63;;;9.05;;
14030;SDS011;7090;49.436;8.490;2024-03-02T14:24:04;10.85;;;10.02;;
14030;SDS011;7090;49.436;8.490;2024-03-02T14:26:32;9.60;;;9.10;;
14030;SDS011;7090;49.436;8.490;2024-03-02T14:28:58;9.48;;;8.98;;
14030;SDS011;7090;49.436;8.490;2024-03-02T14:31:25;8.38;;;8.07;;
14030;SDS011;7090;49.436;8.490;2024-03-02T14:33:51;8.52;;;8.00;;
14030;SDS011;7090;49.436;8.490;2024-03-02T14:36:18;8.60;;;8.20;;
14030;SDS011;7090;49.436;8.490;2024-03-02T14:38:43;8.80;;;8.40;;
14030;SDS011;7090;49.436;8.490;2024-03-02T14:41:09;9.23;;;8.63;;
14030;SDS011;7090;49.436;8.490;2024-03-02T14:43:35;9.15;;;8.65;;
14030;SDS011;7090;49.436;8.490;2024-03-02T14:46:02;9.80;;;9.20;;
14030;SDS011;7090;49.436;8.490;2024-03-02T14:48:28;9.23;;;8.80;;
14030;SDS011;7090;49.436;8.490;2024-03-02T14:50:54;9.00;;;8.50;;
14030;SDS011;7090;49.436;8.490;2024-03-02T14:53:20;9.40;;;8.80;;
14030;SDS011;7090;49.436;8.490;2024-03-02T14:55:45;8.73;;;8.23;;
14030;SDS011;7090;49.436;8.490;2024-03-02T14:58:11;8.43;;;8.02;;
14030;SDS011;7090;49.436;8.490;2024-03-02T15:00:36;8.48;;;8.07;;
14030;SDS011;7090;49.436;8.490;2024-03-02T15:03:02;9.85;;;9.25;;
14030;SDS011;7090;49.436;8.490;2024-03-02T15:05:31;8.88;;;8.38;;